createdAt,value
2019-05-07T00:02:28.549Z,7.67
2019-05-07T00:05:02.514Z,7.28
2019-05-07T00:07:33.502Z,6.83
2019-05-07T00:10:05.855Z,6.58
2019-05-07T00:12:37.629Z,6.50
2019-05-07T00:15:09.485Z,6.12
2019-05-07T00:17:42.883Z,6.65
2019-05-07T00:20:14.395Z,6.10
2019-05-07T00:22:45.833Z,6.33
2019-05-07T00:25:17.120Z,6.95
2019-05-07T00:27:48.501Z,6.50
2019-05-07T00:30:22.395Z,6.72
2019-05-07T00:32:53.939Z,6.35
2019-05-07T00:35:26.870Z,7.20
2019-05-07T00:38:02.895Z,6.07
2019-05-07T00:40:38.459Z,5.95
2019-05-07T00:43:12.081Z,6.30
2019-05-07T00:48:28.650Z,5.92
2019-05-07T00:51:02.329Z,5.85
2019-05-07T00:56:04.651Z,5.65
2019-05-07T00:58:36.501Z,5.50
2019-05-07T01:01:08.153Z,5.72
2019-05-07T01:03:39.708Z,5.97
2019-05-07T01:06:12.874Z,5.70
2019-05-07T01:08:44.716Z,5.90
2019-05-07T01:11:15.992Z,7.15
2019-05-07T01:13:47.383Z,6.70
2019-05-07T01:16:18.702Z,7.10
2019-05-07T01:18:50.462Z,6.33
2019-05-07T01:21:22.724Z,7.20
2019-05-07T01:23:54.463Z,7.70
2019-05-07T01:26:25.890Z,7.25
2019-05-07T01:29:03.045Z,7.65
2019-05-07T01:31:35.919Z,7.53
2019-05-07T01:34:09.151Z,7.42
2019-05-07T01:36:42.612Z,7.05
2019-05-07T01:39:13.699Z,7.12
2019-05-07T01:41:45.145Z,9.33
2019-05-07T01:44:16.484Z,9.85
2019-05-07T01:46:47.813Z,8.23
2019-05-07T01:49:19.494Z,12.75
2019-05-07T01:51:52.997Z,12.15
2019-05-07T01:54:24.092Z,11.30
2019-05-07T01:56:58.712Z,10.08
2019-05-07T01:59:32.155Z,8.58
2019-05-07T02:04:42.718Z,8.80
2019-05-07T02:07:16.789Z,8.00
2019-05-07T02:09:51.796Z,8.80
2019-05-07T02:12:28.087Z,8.70
2019-05-07T02:15:02.483Z,7.78
2019-05-07T02:17:33.571Z,8.40
2019-05-07T02:20:06.741Z,7.95
2019-05-07T02:22:38.103Z,8.23
2019-05-07T02:25:09.745Z,8.30
2019-05-07T02:27:42.135Z,8.75
2019-05-07T02:30:14.801Z,7.35
2019-05-07T02:32:46.585Z,8.03
2019-05-07T02:35:18.164Z,8.98
2019-05-07T02:37:55.629Z,8.30
2019-05-07T02:40:33.932Z,7.97
2019-05-07T02:43:04.470Z,7.78
2019-05-07T02:45:43.769Z,8.63
2019-05-07T02:48:14.577Z,10.93
2019-05-07T02:50:47.754Z,12.47
2019-05-07T02:53:33.783Z,14.13
2019-05-07T02:56:06.133Z,13.58
2019-05-07T02:58:37.444Z,13.75
2019-05-07T03:01:08.845Z,14.45
2019-05-07T03:03:40.137Z,14.15
2019-05-07T03:06:13.573Z,14.63
2019-05-07T03:08:44.717Z,12.80
2019-05-07T03:11:16.200Z,16.00
2019-05-07T03:13:47.568Z,11.53
2019-05-07T03:16:37.422Z,10.80
2019-05-07T03:18:53.271Z,10.15
2019-05-07T03:21:24.800Z,9.85
2019-05-07T03:23:58.884Z,10.35
2019-05-07T03:26:34.167Z,9.28
2019-05-07T03:29:06.695Z,8.85
2019-05-07T03:32:05.484Z,9.08
2019-05-07T03:34:37.759Z,8.08
2019-05-07T03:37:13.621Z,9.33
2019-05-07T03:39:43.933Z,9.28
2019-05-07T03:42:15.749Z,9.20
2019-05-07T03:44:54.708Z,9.20
2019-05-07T03:47:33.171Z,8.80
2019-05-07T03:50:05.653Z,9.78
2019-05-07T03:52:37.603Z,10.10
2019-05-07T03:55:09.324Z,10.88
2019-05-07T03:57:43.599Z,10.32
2019-05-07T04:02:45.865Z,10.28
2019-05-07T04:05:17.384Z,11.40
2019-05-07T04:07:48.888Z,10.55
2019-05-07T04:10:23.169Z,10.85
2019-05-07T04:12:53.577Z,11.05
2019-05-07T04:15:24.989Z,11.53
2019-05-07T04:17:56.661Z,12.60
2019-05-07T04:20:28.141Z,14.47
2019-05-07T04:22:59.887Z,14.53
2019-05-07T04:25:34.612Z,14.83
2019-05-07T04:28:14.258Z,15.80
2019-05-07T04:30:45.747Z,19.65
2019-05-07T04:33:19.131Z,18.00
2019-05-07T04:35:53.810Z,16.65
2019-05-07T04:38:25.411Z,14.03
2019-05-07T04:40:57.276Z,15.13
2019-05-07T04:43:29.021Z,15.03
2019-05-07T04:46:03.139Z,14.55
2019-05-07T04:48:34.786Z,15.53
2019-05-07T04:51:07.870Z,14.50
2019-05-07T04:53:42.672Z,14.33
2019-05-07T04:56:14.025Z,14.30
2019-05-07T04:58:45.696Z,11.85
2019-05-07T05:01:19.246Z,11.75
2019-05-07T05:03:53.214Z,11.68
2019-05-07T05:06:24.341Z,12.55
2019-05-07T05:08:56.547Z,13.65
2019-05-07T05:11:28.023Z,13.90
2019-05-07T05:14:02.569Z,13.00
2019-05-07T05:16:33.023Z,13.72
2019-05-07T05:19:04.876Z,13.58
2019-05-07T05:21:41.990Z,14.38
2019-05-07T05:24:15.256Z,15.28
2019-05-07T05:26:46.720Z,15.43
2019-05-07T05:29:19.161Z,15.85
2019-05-07T05:31:52.737Z,15.18
2019-05-07T05:34:23.827Z,12.98
2019-05-07T05:36:55.539Z,11.20
2019-05-07T05:39:27.412Z,11.60
2019-05-07T05:42:03.366Z,11.12
2019-05-07T05:44:35.258Z,7.80
2019-05-07T05:47:06.863Z,6.47
2019-05-07T05:49:38.577Z,7.42
2019-05-07T05:52:23.891Z,7.10
2019-05-07T05:54:57.748Z,7.00
2019-05-07T06:00:17.857Z,7.35
2019-05-07T06:02:53.224Z,9.83
2019-05-07T06:05:44.626Z,9.30
2019-05-07T06:08:26.917Z,8.68
2019-05-07T06:11:02.992Z,8.68
2019-05-07T06:13:39.461Z,10.15
2019-05-07T06:16:12.645Z,9.10
2019-05-07T06:18:45.728Z,11.43
2019-05-07T06:21:23.978Z,14.63
2019-05-07T06:24:02.969Z,11.90
2019-05-07T06:26:35.005Z,13.72
2019-05-07T06:29:07.143Z,12.03
2019-05-07T06:31:38.755Z,13.03
2019-05-07T06:34:12.415Z,12.53
2019-05-07T06:36:43.806Z,7.72
2019-05-07T06:39:18.242Z,5.90
2019-05-07T06:41:54.541Z,4.78
2019-05-07T06:44:26.457Z,5.28
2019-05-07T06:46:58.002Z,5.20
2019-05-07T06:49:29.555Z,4.42
2019-05-07T06:52:02.995Z,4.45
2019-05-07T06:54:34.747Z,4.00
2019-05-07T06:57:06.472Z,4.87
2019-05-07T06:59:39.560Z,5.00
2019-05-07T07:02:29.021Z,5.35
2019-05-07T07:05:02.979Z,4.90
2019-05-07T07:07:37.476Z,5.28
2019-05-07T07:10:25.804Z,4.55
2019-05-07T07:12:57.762Z,6.40
2019-05-07T07:15:31.932Z,4.80
2019-05-07T07:20:34.571Z,5.87
2019-05-07T07:23:06.326Z,7.85
2019-05-07T07:25:38.092Z,8.65
2019-05-07T07:28:12.156Z,7.37
2019-05-07T07:30:57.368Z,6.90
2019-05-07T07:33:33.941Z,6.75
2019-05-07T07:36:05.314Z,6.28
2019-05-07T07:38:37.560Z,4.83
2019-05-07T07:41:12.728Z,4.93
2019-05-07T07:43:44.351Z,4.92
2019-05-07T07:46:16.629Z,3.60
2019-05-07T07:49:03.186Z,3.40
2019-05-07T07:51:37.202Z,2.90
2019-05-07T07:53:55.427Z,2.80
2019-05-07T07:56:48.424Z,2.95
2019-05-07T07:59:09.234Z,3.10
2019-05-07T08:02:01.845Z,3.30
2019-05-07T08:04:33.547Z,3.60
2019-05-07T08:07:05.189Z,4.17
2019-05-07T08:09:36.947Z,3.80
2019-05-07T08:12:12.538Z,3.98
2019-05-07T08:17:14.100Z,4.15
2019-05-07T08:19:46.030Z,3.45
2019-05-07T08:22:17.695Z,3.70
2019-05-07T08:24:51.672Z,4.20
2019-05-07T08:27:22.946Z,5.12
2019-05-07T08:29:54.624Z,6.72
2019-05-07T08:32:34.050Z,3.58
2019-05-07T08:35:24.535Z,3.83
2019-05-07T08:37:56.501Z,3.62
2019-05-07T08:40:28.174Z,4.37
2019-05-07T08:42:59.810Z,4.08
2019-05-07T08:45:52.574Z,3.37
2019-05-07T08:48:28.762Z,3.40
2019-05-07T08:51:02.513Z,3.50
2019-05-07T08:53:33.869Z,3.20
2019-05-07T08:56:05.931Z,3.70
2019-05-07T08:58:37.928Z,3.75
2019-05-07T09:01:11.913Z,3.45
2019-05-07T09:03:43.629Z,3.37
2019-05-07T09:06:15.541Z,3.00
2019-05-07T09:08:46.887Z,3.17
2019-05-07T09:11:18.823Z,2.92
2019-05-07T09:13:52.445Z,2.80
2019-05-07T09:16:23.722Z,5.42
2019-05-07T09:18:55.447Z,3.25
2019-05-07T09:21:27.413Z,2.80
2019-05-07T09:23:59.017Z,3.05
2019-05-07T09:26:38.725Z,3.20
2019-05-07T09:29:24.080Z,3.00
2019-05-07T09:32:17.154Z,2.83
2019-05-07T09:35:02.144Z,3.10
2019-05-07T09:37:33.986Z,3.60
2019-05-07T09:40:07.881Z,4.35
2019-05-07T09:42:39.632Z,4.15
2019-05-07T09:45:12.077Z,3.37
2019-05-07T09:47:43.803Z,3.52
2019-05-07T09:50:15.730Z,2.60
2019-05-07T09:52:47.874Z,3.27
2019-05-07T09:55:19.362Z,3.47
2019-05-07T09:57:52.753Z,4.62
2019-05-07T10:00:26.057Z,3.37
2019-05-07T10:05:28.565Z,3.85
2019-05-07T10:08:01.884Z,3.67
2019-05-07T10:10:33.372Z,48.33
2019-05-07T10:13:06.562Z,3.30
2019-05-07T10:18:13.682Z,2.90
2019-05-07T10:20:46.747Z,4.00
2019-05-07T10:23:22.985Z,3.33
2019-05-07T10:25:54.677Z,3.52
2019-05-07T10:28:26.427Z,3.70
2019-05-07T10:30:58.227Z,3.62
2019-05-07T10:33:31.998Z,3.98
2019-05-07T10:36:03.851Z,3.12
2019-05-07T10:38:35.968Z,4.47
2019-05-07T10:41:07.469Z,3.25
2019-05-07T10:43:39.350Z,3.30
2019-05-07T10:46:24.665Z,4.15
2019-05-07T10:48:57.959Z,3.77
2019-05-07T10:54:02.292Z,4.30
2019-05-07T10:56:35.547Z,3.22
2019-05-07T10:59:07.646Z,3.60
2019-05-07T11:01:43.763Z,3.75
2019-05-07T11:04:16.177Z,3.55
2019-05-07T11:06:47.770Z,3.37
2019-05-07T11:09:21.741Z,4.05
2019-05-07T11:11:53.050Z,3.70
2019-05-07T11:14:24.802Z,4.10
2019-05-07T11:16:57.882Z,3.50
2019-05-07T11:22:00.878Z,3.80
2019-05-07T11:24:32.947Z,3.95
2019-05-07T11:27:04.651Z,4.37
2019-05-07T11:29:36.704Z,4.25
2019-05-07T11:32:08.529Z,4.33
2019-05-07T11:34:42.217Z,3.72
2019-05-07T11:37:13.736Z,4.35
2019-05-07T11:39:45.483Z,3.45
2019-05-07T11:42:22.075Z,4.08
2019-05-07T11:44:55.038Z,5.47
2019-05-07T11:47:31.862Z,5.08
2019-05-07T11:50:22.590Z,3.92
2019-05-07T11:53:01.593Z,4.10
2019-05-07T11:55:33.956Z,7.00
2019-05-07T11:58:05.342Z,7.50
2019-05-07T12:00:38.508Z,4.50
2019-05-07T12:03:10.067Z,5.08
2019-05-07T12:05:42.246Z,5.20
2019-05-07T12:08:13.783Z,4.42
2019-05-07T12:10:45.345Z,4.92
2019-05-07T12:13:17.091Z,5.08
2019-05-07T12:15:49.163Z,4.33
2019-05-07T12:18:22.696Z,8.28
2019-05-07T12:20:57.319Z,13.72
2019-05-07T12:23:28.795Z,13.10
2019-05-07T12:26:02.263Z,10.32
2019-05-07T12:31:07.291Z,10.90
2019-05-07T12:33:49.182Z,9.43
2019-05-07T12:36:22.771Z,7.10
2019-05-07T12:41:33.645Z,8.30
2019-05-07T12:44:06.667Z,8.30
2019-05-07T12:46:38.416Z,8.10
2019-05-07T12:49:11.976Z,10.20
2019-05-07T12:51:58.375Z,7.87
2019-05-07T12:54:44.203Z,7.62
2019-05-07T12:57:16.877Z,5.47
2019-05-07T12:59:49.699Z,6.22
2019-05-07T13:02:44.233Z,5.47
2019-05-07T13:05:14.964Z,6.70
2019-05-07T13:07:48.218Z,5.05
2019-05-07T13:10:21.916Z,5.20
2019-05-07T13:12:53.440Z,5.78
2019-05-07T13:15:27.976Z,5.33
2019-05-07T13:17:59.822Z,5.78
2019-05-07T13:20:32.922Z,6.75
2019-05-07T13:23:04.796Z,5.67
2019-05-07T13:25:39.303Z,5.70
2019-05-07T13:28:11.868Z,6.05
2019-05-07T13:30:45.165Z,5.92
2019-05-07T13:33:20.149Z,4.92
2019-05-07T13:35:55.904Z,5.22
2019-05-07T13:38:34.348Z,5.25
2019-05-07T13:41:08.989Z,5.08
2019-05-07T13:44:02.906Z,5.87
2019-05-07T13:46:39.785Z,5.35
2019-05-07T13:49:12.525Z,5.72
2019-05-07T13:51:44.115Z,5.57
2019-05-07T13:54:16.240Z,5.45
2019-05-07T13:56:50.005Z,5.95
2019-05-07T14:02:04.533Z,5.37
2019-05-07T14:04:34.538Z,5.28
2019-05-07T14:07:06.016Z,5.15
2019-05-07T14:09:37.528Z,4.83
2019-05-07T14:12:09.010Z,5.10
2019-05-07T14:14:42.572Z,5.42
2019-05-07T14:17:13.465Z,7.70
2019-05-07T14:19:44.816Z,5.08
2019-05-07T14:22:18.992Z,4.83
2019-05-07T14:24:49.341Z,5.58
2019-05-07T14:27:20.720Z,4.85
2019-05-07T14:29:52.353Z,7.55
2019-05-07T14:32:25.229Z,4.92
2019-05-07T14:35:12.276Z,4.75
2019-05-07T14:37:45.000Z,5.62
2019-05-07T14:40:16.576Z,6.05
2019-05-07T14:42:55.483Z,5.08
2019-05-07T14:45:27.275Z,5.12
2019-05-07T14:47:59.273Z,4.97
2019-05-07T14:50:32.965Z,6.00
2019-05-07T14:53:05.790Z,7.92
2019-05-07T14:55:41.855Z,5.20
2019-05-07T14:58:14.347Z,5.65
2019-05-07T15:00:46.459Z,4.80
2019-05-07T15:03:18.869Z,4.50
2019-05-07T15:05:52.512Z,4.90
2019-05-07T15:08:23.327Z,4.70
2019-05-07T15:10:55.184Z,4.97
2019-05-07T15:13:26.585Z,4.58
2019-05-07T15:16:00.234Z,7.20
2019-05-07T15:18:52.923Z,4.72
2019-05-07T15:21:24.779Z,4.87
2019-05-07T15:23:56.222Z,7.67
2019-05-07T15:26:27.887Z,7.28
2019-05-07T15:29:00.855Z,6.58
2019-05-07T15:31:36.684Z,6.70
2019-05-07T15:34:08.101Z,8.55
2019-05-07T15:36:39.532Z,15.60
2019-05-07T15:39:13.273Z,9.70
2019-05-07T15:41:44.387Z,21.25
2019-05-07T15:44:16.055Z,5.40
2019-05-07T15:46:47.932Z,5.70
2019-05-07T15:49:19.313Z,5.17
2019-05-07T15:51:53.118Z,4.58
2019-05-07T15:54:24.713Z,4.60
2019-05-07T15:56:58.885Z,4.50
2019-05-07T15:59:30.577Z,3.95
2019-05-07T16:02:13.030Z,3.75
2019-05-07T16:04:44.402Z,4.62
2019-05-07T16:07:16.098Z,4.08
2019-05-07T16:09:47.553Z,5.25
2019-05-07T16:12:22.731Z,6.85
2019-05-07T16:14:54.336Z,9.50
2019-05-07T16:17:33.813Z,10.78
2019-05-07T16:20:06.370Z,12.03
2019-05-07T16:22:39.474Z,10.88
2019-05-07T16:25:11.723Z,10.45
2019-05-07T16:27:43.304Z,10.78
2019-05-07T16:30:14.810Z,10.50
2019-05-07T16:32:46.532Z,11.80
2019-05-07T16:35:18.005Z,16.27
2019-05-07T16:37:49.696Z,10.28
2019-05-07T16:40:22.947Z,9.70
2019-05-07T16:42:55.710Z,9.90
2019-05-07T16:45:27.204Z,10.85
2019-05-07T16:48:01.129Z,9.55
2019-05-07T16:50:33.475Z,10.45
2019-05-07T16:53:05.256Z,12.23
2019-05-07T16:55:37.293Z,9.28
2019-05-07T16:58:12.359Z,9.98
2019-05-07T17:00:45.442Z,10.98
2019-05-07T17:05:49.428Z,9.35
2019-05-07T17:08:22.587Z,9.90
2019-05-07T17:10:53.978Z,9.25
2019-05-07T17:13:25.511Z,12.18
2019-05-07T17:15:57.927Z,14.35
2019-05-07T17:18:34.461Z,15.10
2019-05-07T17:21:06.289Z,18.00
2019-05-07T17:23:44.103Z,19.05
2019-05-07T17:26:11.710Z,19.75
2019-05-07T17:28:44.023Z,24.65
2019-05-07T17:31:15.998Z,23.55
2019-05-07T17:33:51.557Z,21.37
2019-05-07T17:36:22.798Z,19.55
2019-05-07T17:38:54.932Z,18.90
2019-05-07T17:41:27.473Z,15.93
2019-05-07T17:44:03.677Z,15.00
2019-05-07T17:46:39.486Z,14.00
2019-05-07T17:49:12.466Z,13.90
2019-05-07T17:51:44.740Z,10.93
2019-05-07T17:54:16.796Z,12.10
2019-05-07T17:56:48.836Z,12.23
2019-05-07T17:59:22.908Z,11.90
2019-05-07T18:01:58.020Z,13.45
2019-05-07T18:04:36.529Z,10.88
2019-05-07T18:07:05.635Z,9.90
2019-05-07T18:09:37.556Z,7.87
2019-05-07T18:12:11.915Z,10.95
2019-05-07T18:14:45.750Z,7.95
2019-05-07T18:17:22.589Z,7.25
2019-05-07T18:19:54.977Z,8.18
2019-05-07T18:22:26.710Z,7.62
2019-05-07T18:24:59.067Z,7.00
2019-05-07T18:27:32.840Z,7.37
2019-05-07T18:30:04.234Z,8.20
2019-05-07T18:32:38.011Z,8.73
2019-05-07T18:35:12.661Z,7.53
2019-05-07T18:37:53.384Z,8.43
2019-05-07T18:40:25.349Z,7.83
2019-05-07T18:42:56.987Z,7.30
2019-05-07T18:45:29.033Z,7.75
2019-05-07T18:48:02.457Z,8.00
2019-05-07T18:50:34.388Z,7.83
2019-05-07T18:53:06.164Z,8.40
2019-05-07T18:55:39.796Z,8.35
2019-05-07T18:58:13.379Z,8.48
2019-05-07T19:00:51.921Z,7.20
2019-05-07T19:03:25.778Z,8.48
2019-05-07T19:05:57.938Z,8.40
2019-05-07T19:08:32.269Z,7.42
2019-05-07T19:11:05.786Z,7.72
2019-05-07T19:13:38.756Z,6.30
2019-05-07T19:16:12.548Z,6.33
2019-05-07T19:18:43.837Z,5.90
2019-05-07T19:21:15.379Z,7.50
2019-05-07T19:23:47.277Z,7.03
2019-05-07T19:26:21.320Z,7.37
2019-05-07T19:28:53.922Z,7.75
2019-05-07T19:31:27.272Z,8.58
2019-05-07T19:33:59.548Z,7.75
2019-05-07T19:36:32.211Z,8.03
2019-05-07T19:39:05.655Z,7.15
2019-05-07T19:41:39.200Z,7.08
2019-05-07T19:44:12.722Z,7.65
2019-05-07T19:46:44.424Z,7.08
2019-05-07T19:49:16.011Z,7.53
2019-05-07T19:51:47.933Z,5.97
2019-05-07T19:54:22.618Z,7.17
2019-05-07T19:56:53.617Z,10.03
2019-05-07T19:59:25.039Z,8.40
2019-05-07T20:01:58.121Z,7.90
2019-05-07T20:04:29.581Z,7.40
2019-05-07T20:07:02.822Z,7.08
2019-05-07T20:09:36.223Z,7.83
2019-05-07T20:12:08.177Z,16.90
2019-05-07T20:14:42.079Z,13.53
2019-05-07T20:17:13.164Z,17.77
2019-05-07T20:19:44.598Z,14.87
2019-05-07T20:22:16.145Z,8.30
2019-05-07T20:24:47.492Z,7.47
2019-05-07T20:27:19.025Z,7.50
2019-05-07T20:29:52.257Z,7.78
2019-05-07T20:32:25.127Z,8.40
2019-05-07T20:34:56.620Z,8.25
2019-05-07T20:37:28.213Z,9.03
2019-05-07T20:39:59.579Z,8.63
2019-05-07T20:42:32.822Z,8.23
2019-05-07T20:45:05.563Z,8.80
2019-05-07T20:47:36.972Z,7.83
2019-05-07T20:50:08.935Z,8.33
2019-05-07T20:52:41.852Z,8.35
2019-05-07T20:55:28.133Z,9.60
2019-05-07T20:57:54.078Z,8.43
2019-05-07T21:00:29.231Z,7.72
2019-05-07T21:03:18.698Z,7.95
2019-05-07T21:05:53.002Z,8.35
2019-05-07T21:08:24.967Z,7.95
2019-05-07T21:10:56.279Z,8.13
2019-05-07T21:13:31.772Z,8.15
2019-05-07T21:16:03.054Z,10.88
2019-05-07T21:18:33.833Z,8.48
2019-05-07T21:21:05.272Z,9.13
2019-05-07T21:23:36.616Z,8.33
2019-05-07T21:26:07.969Z,7.17
2019-05-07T21:28:39.491Z,8.20
2019-05-07T21:31:11.957Z,8.38
2019-05-07T21:33:44.509Z,7.40
2019-05-07T21:36:15.946Z,7.33
2019-05-07T21:38:47.532Z,7.22
2019-05-07T21:41:19.020Z,7.37
2019-05-07T21:43:52.614Z,7.87
2019-05-07T21:46:23.471Z,9.33
2019-05-07T21:48:54.933Z,10.63
2019-05-07T21:51:26.320Z,9.25
2019-05-07T21:54:08.392Z,9.95
2019-05-07T21:56:54.553Z,9.30
2019-05-07T21:59:33.526Z,8.90
2019-05-07T22:02:08.387Z,8.90
2019-05-07T22:04:41.717Z,8.80
2019-05-07T22:07:12.851Z,10.18
2019-05-07T22:09:44.592Z,8.53
2019-05-07T22:12:16.062Z,9.13
2019-05-07T22:14:47.521Z,9.33
2019-05-07T22:17:18.933Z,8.65
2019-05-07T22:19:52.525Z,9.58
2019-05-07T22:22:24.313Z,9.45
2019-05-07T22:24:56.031Z,9.23
2019-05-07T22:27:28.931Z,9.18
2019-05-07T22:30:02.302Z,8.63
2019-05-07T22:32:36.592Z,8.80
2019-05-07T22:35:27.816Z,7.70
2019-05-07T22:38:06.935Z,7.65
2019-05-07T22:40:40.201Z,7.17
2019-05-07T22:43:13.093Z,7.95
2019-05-07T22:45:44.851Z,7.53
2019-05-07T22:48:16.118Z,7.92
2019-05-07T22:50:47.509Z,8.20
2019-05-07T22:53:21.953Z,8.05
2019-05-07T22:55:53.077Z,7.47
2019-05-07T22:58:32.425Z,8.40
2019-05-07T23:01:08.000Z,7.83
2019-05-07T23:03:39.289Z,7.65
2019-05-07T23:06:12.278Z,7.53
2019-05-07T23:08:43.933Z,7.45
2019-05-07T23:11:15.637Z,7.00
2019-05-07T23:13:46.932Z,7.67
2019-05-07T23:16:18.303Z,7.87
2019-05-07T23:18:49.659Z,8.05
2019-05-07T23:21:24.259Z,7.30
2019-05-07T23:23:54.317Z,7.47
2019-05-07T23:26:25.922Z,8.00
2019-05-07T23:28:57.294Z,8.03
2019-05-07T23:31:28.765Z,8.83
2019-05-07T23:34:01.948Z,9.28
2019-05-07T23:36:33.671Z,9.60
2019-05-07T23:39:06.882Z,9.38
2019-05-07T23:41:43.056Z,8.23
2019-05-07T23:44:16.160Z,8.20
2019-05-07T23:46:47.617Z,8.83
2019-05-07T23:49:18.897Z,8.10
2019-05-07T23:51:52.810Z,9.08
2019-05-07T23:54:23.850Z,8.48
2019-05-07T23:57:06.050Z,7.40
2019-05-07T23:59:28.429Z,7.55
